Airfield :
LOGIN :

Register | Disclaimer

   EN    FR    IT 

 










Legend :    VFR   Marginal VFR   IFR   Intensive IFR   Very Intensive IFR
Visi :
Ceiling :
>= 8 km
>= 3000ft
5 to 8 km
1000 to 3000 ft
1500m to 5 km
500 to 1000 ft
800 to 1500m
200 to 500 ft
< 800m
< 200 ft
Symbols :   Thunderstorms  Fog  Heavy snow  Heavy precipitations  Wind > 20 kt
SIGMETs :     Misc.  Thunderstorms  Icing  Turbulence  Mountain Waves  Volcanic Ashes







- Airport Elevation : 53 ft
- IATA code : HAM


EDDH - Hamburg

CURRENT METAR :
  • 251720Z 29009KT 9999 -DZRA BKN008 BKN013 14/13 Q1022 TEMPO BKN012

EXPIRED METARs :
  • 251650Z 28008KT 240V320 7000 -DZRA FEW006 BKN008 14/13 Q1022 NOSIG
  • 251620Z 28008KT 240V300 5000 -DZRA BKN007 14/13 Q1022 NOSIG
  • 251550Z 28011KT 250V310 9000 -DZRA BKN010 14/12 Q1022 TEMPO BKN009
  • 251520Z 28013KT 9999 -RA BKN011 15/12 Q1022 NOSIG
  • 251450Z 28014KT 240V300 9999 OVC014 15/11 Q1022 NOSIG

TAF TAF EDDH
Valid from the 25 at 18:00 until the 27 at 00:00 UTC


251700Z 2518/2624 29006KT 9999 BKN012
TEMPO 2518/2607 4500 -DZ BKN007
BECMG 2607/2610 FEW025
BECMG 2616/2618 VRB03KT
No reported NOTAMs for that airfield.



MET'MAP, your aeronautical weather chart ! - Copyright ORBIFLY December 2007 - Disclaimer

ORBIFLY MET'MAP TEAM :

Programming & Development : Alexandra Zaïnal
Concept & Development : Baudouin d'Aumeries
Co-Development & Prog : Marc-Olivier Méhu
Technical & hardware support : Manuel Goepfert

Contact : metmap@orbifly.com




SOURCES & CREDITS :

   NOAA